sensor_id;sensor_type;location;lat;lon;timestamp;P1;durP1;ratioP1;P2;durP2;ratioP2
4909;SDS011;2470;49.868;8.660;2023-06-19T00:02:02;6.00;;;3.75;;
4909;SDS011;2470;49.868;8.660;2023-06-19T00:04:27;10.35;;;4.15;;
4909;SDS011;2470;49.868;8.660;2023-06-19T00:06:53;5.63;;;3.47;;
4909;SDS011;2470;49.868;8.660;2023-06-19T00:09:19;4.28;;;3.80;;
4909;SDS011;2470;49.868;8.660;2023-06-19T00:11:45;8.02;;;4.47;;
4909;SDS011;2470;49.868;8.660;2023-06-19T00:14:10;4.90;;;3.45;;
4909;SDS011;2470;49.868;8.660;2023-06-19T00:16:36;6.25;;;4.10;;
4909;SDS011;2470;49.868;8.660;2023-06-19T00:19:02;4.45;;;3.47;;
4909;SDS011;2470;49.868;8.660;2023-06-19T00:21:28;4.75;;;3.70;;
4909;SDS011;2470;49.868;8.660;2023-06-19T00:23:54;5.03;;;3.95;;
4909;SDS011;2470;49.868;8.660;2023-06-19T00:26:21;5.88;;;3.75;;
4909;SDS011;2470;49.868;8.660;2023-06-19T00:28:50;4.30;;;3.38;;
4909;SDS011;2470;49.868;8.660;2023-06-19T00:31:18;5.25;;;3.97;;
4909;SDS011;2470;49.868;8.660;2023-06-19T00:33:44;3.80;;;3.42;;
4909;SDS011;2470;49.868;8.660;2023-06-19T00:36:12;4.82;;;3.35;;
4909;SDS011;2470;49.868;8.660;2023-06-19T00:38:40;5.78;;;3.67;;
4909;SDS011;2470;49.868;8.660;2023-06-19T00:41:06;6.60;;;4.45;;
4909;SDS011;2470;49.868;8.660;2023-06-19T00:43:32;5.63;;;3.85;;
4909;SDS011;2470;49.868;8.660;2023-06-19T00:45:58;5.70;;;4.07;;
4909;SDS011;2470;49.868;8.660;2023-06-19T00:48:24;5.00;;;3.80;;
4909;SDS011;2470;49.868;8.660;2023-06-19T00:50:51;11.25;;;3.97;;
4909;SDS011;2470;49.868;8.660;2023-06-19T00:53:17;5.82;;;3.88;;
4909;SDS011;2470;49.868;8.660;2023-06-19T00:55:44;8.38;;;4.97;;
4909;SDS011;2470;49.868;8.660;2023-06-19T00:58:11;6.10;;;4.20;;
4909;SDS011;2470;49.868;8.660;2023-06-19T01:00:36;4.60;;;3.30;;
4909;SDS011;2470;49.868;8.660;2023-06-19T01:03:02;9.65;;;3.85;;
4909;SDS011;2470;49.868;8.660;2023-06-19T01:05:28;5.97;;;4.28;;
4909;SDS011;2470;49.868;8.660;2023-06-19T01:07:58;7.28;;;4.78;;
4909;SDS011;2470;49.868;8.660;2023-06-19T01:10:36;6.05;;;3.42;;
4909;SDS011;2470;49.868;8.660;2023-06-19T01:13:10;5.80;;;3.63;;
4909;SDS011;2470;49.868;8.660;2023-06-19T01:15:42;5.82;;;4.28;;
4909;SDS011;2470;49.868;8.660;2023-06-19T01:18:08;6.32;;;5.07;;
4909;SDS011;2470;49.868;8.660;2023-06-19T01:20:36;8.63;;;4.20;;
4909;SDS011;2470;49.868;8.660;2023-06-19T01:23:09;5.10;;;4.53;;
4909;SDS011;2470;49.868;8.660;2023-06-19T01:25:35;4.93;;;3.58;;
4909;SDS011;2470;49.868;8.660;2023-06-19T01:28:01;4.22;;;3.83;;
4909;SDS011;2470;49.868;8.660;2023-06-19T01:30:32;4.43;;;3.67;;
4909;SDS011;2470;49.868;8.660;2023-06-19T01:35:57;5.60;;;4.20;;
4909;SDS011;2470;49.868;8.660;2023-06-19T01:38:24;7.45;;;4.60;;
4909;SDS011;2470;49.868;8.660;2023-06-19T01:40:52;7.65;;;4.18;;
4909;SDS011;2470;49.868;8.660;2023-06-19T01:43:19;5.93;;;4.22;;
4909;SDS011;2470;49.868;8.660;2023-06-19T01:45:45;5.95;;;5.10;;
4909;SDS011;2470;49.868;8.660;2023-06-19T01:48:11;5.82;;;4.35;;
4909;SDS011;2470;49.868;8.660;2023-06-19T01:50:37;6.25;;;3.78;;
4909;SDS011;2470;49.868;8.660;2023-06-19T01:53:03;7.38;;;4.95;;
4909;SDS011;2470;49.868;8.660;2023-06-19T01:55:28;6.28;;;3.55;;
4909;SDS011;2470;49.868;8.660;2023-06-19T01:57:54;5.78;;;3.97;;
4909;SDS011;2470;49.868;8.660;2023-06-19T02:00:19;5.32;;;4.05;;
4909;SDS011;2470;49.868;8.660;2023-06-19T02:02:45;7.47;;;5.05;;
4909;SDS011;2470;49.868;8.660;2023-06-19T02:05:11;7.72;;;4.35;;
4909;SDS011;2470;49.868;8.660;2023-06-19T02:07:38;6.63;;;4.15;;
4909;SDS011;2470;49.868;8.660;2023-06-19T02:10:04;5.07;;;3.53;;
4909;SDS011;2470;49.868;8.660;2023-06-19T02:12:30;9.15;;;4.78;;
4909;SDS011;2470;49.868;8.660;2023-06-19T02:14:56;6.35;;;4.03;;
4909;SDS011;2470;49.868;8.660;2023-06-19T02:17:21;5.03;;;4.25;;
4909;SDS011;2470;49.868;8.660;2023-06-19T02:19:49;5.00;;;3.85;;
4909;SDS011;2470;49.868;8.660;2023-06-19T02:22:17;7.22;;;4.43;;
4909;SDS011;2470;49.868;8.660;2023-06-19T02:24:43;8.65;;;5.40;;
4909;SDS011;2470;49.868;8.660;2023-06-19T02:27:10;6.85;;;4.35;;
4909;SDS011;2470;49.868;8.660;2023-06-19T02:29:35;6.43;;;4.18;;
4909;SDS011;2470;49.868;8.660;2023-06-19T02:32:02;10.32;;;4.50;;
4909;SDS011;2470;49.868;8.660;2023-06-19T02:34:27;4.32;;;3.75;;
4909;SDS011;2470;49.868;8.660;2023-06-19T02:36:53;6.45;;;4.97;;
4909;SDS011;2470;49.868;8.660;2023-06-19T02:39:18;7.60;;;4.70;;
4909;SDS011;2470;49.868;8.660;2023-06-19T02:41:44;6.97;;;4.68;;
4909;SDS011;2470;49.868;8.660;2023-06-19T02:44:12;7.00;;;4.50;;
4909;SDS011;2470;49.868;8.660;2023-06-19T02:46:38;5.90;;;3.95;;
4909;SDS011;2470;49.868;8.660;2023-06-19T02:49:04;6.57;;;4.28;;
4909;SDS011;2470;49.868;8.660;2023-06-19T02:51:29;7.95;;;4.75;;
4909;SDS011;2470;49.868;8.660;2023-06-19T02:53:55;6.28;;;4.15;;
4909;SDS011;2470;49.868;8.660;2023-06-19T02:56:20;6.75;;;3.92;;
4909;SDS011;2470;49.868;8.660;2023-06-19T02:58:46;5.43;;;4.00;;
4909;SDS011;2470;49.868;8.660;2023-06-19T03:01:12;5.53;;;4.30;;
4909;SDS011;2470;49.868;8.660;2023-06-19T03:03:37;6.93;;;4.40;;
4909;SDS011;2470;49.868;8.660;2023-06-19T03:06:04;5.13;;;3.28;;
4909;SDS011;2470;49.868;8.660;2023-06-19T03:08:31;7.55;;;4.65;;
4909;SDS011;2470;49.868;8.660;2023-06-19T03:10:58;5.82;;;4.03;;
4909;SDS011;2470;49.868;8.660;2023-06-19T03:13:23;6.93;;;4.40;;
4909;SDS011;2470;49.868;8.660;2023-06-19T03:15:49;4.82;;;3.90;;
4909;SDS011;2470;49.868;8.660;2023-06-19T03:18:14;6.32;;;4.50;;
4909;SDS011;2470;49.868;8.660;2023-06-19T03:20:40;7.03;;;4.40;;
4909;SDS011;2470;49.868;8.660;2023-06-19T03:23:05;4.15;;;3.60;;
4909;SDS011;2470;49.868;8.660;2023-06-19T03:25:31;5.18;;;3.75;;
4909;SDS011;2470;49.868;8.660;2023-06-19T03:28:00;15.52;;;4.47;;
4909;SDS011;2470;49.868;8.660;2023-06-19T03:30:26;5.97;;;4.22;;
4909;SDS011;2470;49.868;8.660;2023-06-19T03:32:52;5.07;;;3.67;;
4909;SDS011;2470;49.868;8.660;2023-06-19T03:35:17;9.32;;;4.97;;
4909;SDS011;2470;49.868;8.660;2023-06-19T03:37:43;4.80;;;3.78;;
4909;SDS011;2470;49.868;8.660;2023-06-19T03:40:08;6.18;;;4.80;;
4909;SDS011;2470;49.868;8.660;2023-06-19T03:42:39;5.95;;;4.40;;
4909;SDS011;2470;49.868;8.660;2023-06-19T03:45:05;7.22;;;5.13;;
4909;SDS011;2470;49.868;8.660;2023-06-19T03:47:31;8.15;;;4.40;;
4909;SDS011;2470;49.868;8.660;2023-06-19T03:49:56;5.78;;;3.97;;
4909;SDS011;2470;49.868;8.660;2023-06-19T03:52:22;6.63;;;4.35;;
4909;SDS011;2470;49.868;8.660;2023-06-19T03:54:47;5.68;;;4.10;;
4909;SDS011;2470;49.868;8.660;2023-06-19T03:57:13;6.45;;;4.30;;
4909;SDS011;2470;49.868;8.660;2023-06-19T03:59:39;5.82;;;4.25;;
4909;SDS011;2470;49.868;8.660;2023-06-19T04:02:04;5.35;;;4.38;;
4909;SDS011;2470;49.868;8.660;2023-06-19T04:04:30;6.93;;;4.40;;
4909;SDS011;2470;49.868;8.660;2023-06-19T04:06:55;5.63;;;4.20;;
4909;SDS011;2470;49.868;8.660;2023-06-19T04:09:21;5.63;;;3.80;;
4909;SDS011;2470;49.868;8.660;2023-06-19T04:11:47;7.38;;;4.47;;
4909;SDS011;2470;49.868;8.660;2023-06-19T04:14:12;5.10;;;3.92;;
4909;SDS011;2470;49.868;8.660;2023-06-19T04:16:38;5.07;;;3.90;;
4909;SDS011;2470;49.868;8.660;2023-06-19T04:19:03;6.75;;;4.13;;
4909;SDS011;2470;49.868;8.660;2023-06-19T04:21:29;5.35;;;3.83;;
4909;SDS011;2470;49.868;8.660;2023-06-19T04:23:54;5.25;;;3.95;;
4909;SDS011;2470;49.868;8.660;2023-06-19T04:26:20;6.20;;;4.05;;
4909;SDS011;2470;49.868;8.660;2023-06-19T04:28:46;6.90;;;4.65;;
4909;SDS011;2470;49.868;8.660;2023-06-19T04:31:12;5.00;;;3.25;;
4909;SDS011;2470;49.868;8.660;2023-06-19T04:33:37;4.57;;;3.60;;
4909;SDS011;2470;49.868;8.660;2023-06-19T04:36:05;3.63;;;3.33;;
4909;SDS011;2470;49.868;8.660;2023-06-19T04:38:30;7.43;;;4.22;;
4909;SDS011;2470;49.868;8.660;2023-06-19T04:40:56;4.68;;;3.45;;
4909;SDS011;2470;49.868;8.660;2023-06-19T04:43:22;5.18;;;3.60;;
4909;SDS011;2470;49.868;8.660;2023-06-19T04:45:49;4.68;;;3.80;;
4909;SDS011;2470;49.868;8.660;2023-06-19T04:48:15;4.82;;;3.17;;
4909;SDS011;2470;49.868;8.660;2023-06-19T04:50:40;4.22;;;3.47;;
4909;SDS011;2470;49.868;8.660;2023-06-19T04:53:06;5.20;;;3.55;;
4909;SDS011;2470;49.868;8.660;2023-06-19T04:55:31;3.88;;;3.20;;
4909;SDS011;2470;49.868;8.660;2023-06-19T04:57:57;4.90;;;3.05;;
4909;SDS011;2470;49.868;8.660;2023-06-19T05:00:22;5.28;;;3.80;;
4909;SDS011;2470;49.868;8.660;2023-06-19T05:02:48;4.85;;;3.38;;
4909;SDS011;2470;49.868;8.660;2023-06-19T05:05:15;4.30;;;2.83;;
4909;SDS011;2470;49.868;8.660;2023-06-19T05:07:44;5.13;;;3.20;;
4909;SDS011;2470;49.868;8.660;2023-06-19T05:10:13;3.70;;;2.97;;
4909;SDS011;2470;49.868;8.660;2023-06-19T05:12:38;6.60;;;3.80;;
4909;SDS011;2470;49.868;8.660;2023-06-19T05:15:04;3.22;;;2.92;;
4909;SDS011;2470;49.868;8.660;2023-06-19T05:17:30;4.78;;;3.03;;
4909;SDS011;2470;49.868;8.660;2023-06-19T05:19:55;3.80;;;2.85;;
4909;SDS011;2470;49.868;8.660;2023-06-19T05:22:21;3.83;;;2.97;;
4909;SDS011;2470;49.868;8.660;2023-06-19T05:24:48;3.45;;;3.00;;
4909;SDS011;2470;49.868;8.660;2023-06-19T05:27:14;4.65;;;2.90;;
4909;SDS011;2470;49.868;8.660;2023-06-19T05:29:40;5.15;;;3.35;;
4909;SDS011;2470;49.868;8.660;2023-06-19T05:32:05;6.40;;;3.10;;
4909;SDS011;2470;49.868;8.660;2023-06-19T05:34:31;4.20;;;3.08;;
4909;SDS011;2470;49.868;8.660;2023-06-19T05:36:57;4.68;;;2.78;;
4909;SDS011;2470;49.868;8.660;2023-06-19T05:39:23;3.50;;;2.67;;
4909;SDS011;2470;49.868;8.660;2023-06-19T05:41:48;3.05;;;2.47;;
4909;SDS011;2470;49.868;8.660;2023-06-19T05:44:14;2.88;;;2.30;;
4909;SDS011;2470;49.868;8.660;2023-06-19T05:46:41;2.58;;;2.22;;
4909;SDS011;2470;49.868;8.660;2023-06-19T05:49:07;3.10;;;2.80;;
4909;SDS011;2470;49.868;8.660;2023-06-19T05:51:33;4.68;;;3.00;;
4909;SDS011;2470;49.868;8.660;2023-06-19T05:53:58;3.05;;;2.30;;
4909;SDS011;2470;49.868;8.660;2023-06-19T05:56:31;6.18;;;2.90;;
4909;SDS011;2470;49.868;8.660;2023-06-19T05:58:58;3.15;;;2.42;;
4909;SDS011;2470;49.868;8.660;2023-06-19T06:01:25;4.18;;;2.90;;
4909;SDS011;2470;49.868;8.660;2023-06-19T06:03:52;2.55;;;2.30;;
4909;SDS011;2470;49.868;8.660;2023-06-19T06:06:19;5.10;;;2.50;;
4909;SDS011;2470;49.868;8.660;2023-06-19T06:08:44;2.78;;;2.30;;
4909;SDS011;2470;49.868;8.660;2023-06-19T06:11:10;3.03;;;2.60;;
4909;SDS011;2470;49.868;8.660;2023-06-19T06:13:35;2.33;;;1.98;;
4909;SDS011;2470;49.868;8.660;2023-06-19T06:16:01;4.93;;;2.92;;
4909;SDS011;2470;49.868;8.660;2023-06-19T06:18:26;3.42;;;2.58;;
4909;SDS011;2470;49.868;8.660;2023-06-19T06:20:52;6.03;;;2.17;;
4909;SDS011;2470;49.868;8.660;2023-06-19T06:23:18;2.83;;;2.13;;
4909;SDS011;2470;49.868;8.660;2023-06-19T06:25:43;3.22;;;2.55;;
4909;SDS011;2470;49.868;8.660;2023-06-19T06:28:10;3.38;;;2.88;;
4909;SDS011;2470;49.868;8.660;2023-06-19T06:30:36;4.38;;;2.72;;
4909;SDS011;2470;49.868;8.660;2023-06-19T06:33:01;2.95;;;2.40;;
4909;SDS011;2470;49.868;8.660;2023-06-19T06:35:27;3.40;;;2.53;;
4909;SDS011;2470;49.868;8.660;2023-06-19T06:37:53;4.93;;;2.42;;
4909;SDS011;2470;49.868;8.660;2023-06-19T06:40:18;3.08;;;2.05;;
4909;SDS011;2470;49.868;8.660;2023-06-19T06:42:44;3.42;;;2.72;;
4909;SDS011;2470;49.868;8.660;2023-06-19T06:45:10;5.45;;;2.88;;
4909;SDS011;2470;49.868;8.660;2023-06-19T06:47:35;3.22;;;2.50;;
4909;SDS011;2470;49.868;8.660;2023-06-19T06:50:01;4.63;;;2.50;;
4909;SDS011;2470;49.868;8.660;2023-06-19T06:52:26;2.85;;;2.17;;
4909;SDS011;2470;49.868;8.660;2023-06-19T06:54:52;2.40;;;2.20;;
4909;SDS011;2470;49.868;8.660;2023-06-19T06:57:18;2.85;;;2.47;;
4909;SDS011;2470;49.868;8.660;2023-06-19T06:59:43;2.97;;;2.33;;
4909;SDS011;2470;49.868;8.660;2023-06-19T07:02:09;4.50;;;2.58;;
4909;SDS011;2470;49.868;8.660;2023-06-19T07:04:35;2.50;;;2.22;;
4909;SDS011;2470;49.868;8.660;2023-06-19T07:07:00;2.20;;;2.00;;
4909;SDS011;2470;49.868;8.660;2023-06-19T07:09:26;4.47;;;2.67;;
4909;SDS011;2470;49.868;8.660;2023-06-19T07:11:52;3.83;;;2.63;;
4909;SDS011;2470;49.868;8.660;2023-06-19T07:14:17;4.25;;;2.75;;
4909;SDS011;2470;49.868;8.660;2023-06-19T07:16:45;3.38;;;2.88;;
4909;SDS011;2470;49.868;8.660;2023-06-19T07:19:11;4.25;;;2.63;;
4909;SDS011;2470;49.868;8.660;2023-06-19T07:21:37;3.45;;;1.90;;
4909;SDS011;2470;49.868;8.660;2023-06-19T07:24:04;3.03;;;2.08;;
4909;SDS011;2470;49.868;8.660;2023-06-19T07:26:30;3.28;;;2.42;;
4909;SDS011;2470;49.868;8.660;2023-06-19T07:28:55;2.75;;;2.15;;
4909;SDS011;2470;49.868;8.660;2023-06-19T07:31:21;2.40;;;2.20;;
4909;SDS011;2470;49.868;8.660;2023-06-19T07:33:46;2.28;;;2.08;;
4909;SDS011;2470;49.868;8.660;2023-06-19T07:36:12;3.20;;;2.35;;
4909;SDS011;2470;49.868;8.660;2023-06-19T07:38:45;2.95;;;2.20;;
4909;SDS011;2470;49.868;8.660;2023-06-19T07:41:11;2.95;;;2.20;;
4909;SDS011;2470;49.868;8.660;2023-06-19T07:43:37;2.60;;;2.33;;
4909;SDS011;2470;49.868;8.660;2023-06-19T07:46:03;3.72;;;2.30;;
4909;SDS011;2470;49.868;8.660;2023-06-19T07:48:29;3.25;;;2.30;;
4909;SDS011;2470;49.868;8.660;2023-06-19T07:50:54;3.78;;;2.33;;
4909;SDS011;2470;49.868;8.660;2023-06-19T07:53:20;4.40;;;2.42;;
4909;SDS011;2470;49.868;8.660;2023-06-19T07:55:46;3.92;;;2.40;;
4909;SDS011;2470;49.868;8.660;2023-06-19T07:58:11;3.60;;;2.30;;
4909;SDS011;2470;49.868;8.660;2023-06-19T08:00:37;3.70;;;2.00;;
4909;SDS011;2470;49.868;8.660;2023-06-19T08:03:02;2.83;;;2.08;;
4909;SDS011;2470;49.868;8.660;2023-06-19T08:05:29;3.20;;;2.78;;
4909;SDS011;2470;49.868;8.660;2023-06-19T08:07:55;3.35;;;2.45;;
4909;SDS011;2470;49.868;8.660;2023-06-19T08:10:21;3.45;;;2.40;;
4909;SDS011;2470;49.868;8.660;2023-06-19T08:12:47;2.70;;;2.28;;
4909;SDS011;2470;49.868;8.660;2023-06-19T08:15:12;3.28;;;2.58;;
4909;SDS011;2470;49.868;8.660;2023-06-19T08:17:38;3.65;;;2.63;;
4909;SDS011;2470;49.868;8.660;2023-06-19T08:20:04;3.47;;;2.78;;
4909;SDS011;2470;49.868;8.660;2023-06-19T08:22:31;4.25;;;2.90;;
4909;SDS011;2470;49.868;8.660;2023-06-19T08:24:56;2.53;;;2.33;;
4909;SDS011;2470;49.868;8.660;2023-06-19T08:27:22;3.65;;;2.60;;
4909;SDS011;2470;49.868;8.660;2023-06-19T08:29:47;3.45;;;2.50;;
4909;SDS011;2470;49.868;8.660;2023-06-19T08:32:13;8.48;;;2.75;;
4909;SDS011;2470;49.868;8.660;2023-06-19T08:34:38;4.05;;;3.10;;
4909;SDS011;2470;49.868;8.660;2023-06-19T08:37:05;4.65;;;2.50;;
4909;SDS011;2470;49.868;8.660;2023-06-19T08:39:31;2.60;;;2.38;;
4909;SDS011;2470;49.868;8.660;2023-06-19T08:41:56;4.18;;;2.50;;
4909;SDS011;2470;49.868;8.660;2023-06-19T08:44:22;2.40;;;2.20;;
4909;SDS011;2470;49.868;8.660;2023-06-19T08:46:47;5.95;;;3.20;;
4909;SDS011;2470;49.868;8.660;2023-06-19T08:49:13;2.25;;;2.05;;
4909;SDS011;2470;49.868;8.660;2023-06-19T08:51:39;2.83;;;2.50;;
4909;SDS011;2470;49.868;8.660;2023-06-19T08:54:05;4.95;;;2.25;;
4909;SDS011;2470;49.868;8.660;2023-06-19T08:56:32;2.35;;;2.15;;
4909;SDS011;2470;49.868;8.660;2023-06-19T08:59:12;3.30;;;2.53;;
4909;SDS011;2470;49.868;8.660;2023-06-19T09:01:49;3.35;;;2.60;;
4909;SDS011;2470;49.868;8.660;2023-06-19T09:04:19;3.65;;;2.90;;
4909;SDS011;2470;49.868;8.660;2023-06-19T09:06:47;3.13;;;2.83;;
4909;SDS011;2470;49.868;8.660;2023-06-19T09:09:13;6.00;;;2.72;;
4909;SDS011;2470;49.868;8.660;2023-06-19T09:11:39;3.13;;;2.45;;
4909;SDS011;2470;49.868;8.660;2023-06-19T09:14:08;3.45;;;2.47;;
4909;SDS011;2470;49.868;8.660;2023-06-19T09:16:39;2.65;;;2.38;;
4909;SDS011;2470;49.868;8.660;2023-06-19T09:19:05;3.50;;;2.58;;
4909;SDS011;2470;49.868;8.660;2023-06-19T09:21:31;3.33;;;2.45;;
4909;SDS011;2470;49.868;8.660;2023-06-19T09:24:06;3.15;;;2.50;;
4909;SDS011;2470;49.868;8.660;2023-06-19T09:26:33;3.60;;;2.35;;
4909;SDS011;2470;49.868;8.660;2023-06-19T09:29:12;2.65;;;2.20;;
4909;SDS011;2470;49.868;8.660;2023-06-19T09:31:41;2.97;;;2.67;;
4909;SDS011;2470;49.868;8.660;2023-06-19T09:34:07;4.55;;;2.80;;
4909;SDS011;2470;49.868;8.660;2023-06-19T09:36:33;5.68;;;2.58;;
4909;SDS011;2470;49.868;8.660;2023-06-19T09:39:00;4.07;;;2.33;;
4909;SDS011;2470;49.868;8.660;2023-06-19T09:41:29;3.40;;;2.75;;
4909;SDS011;2470;49.868;8.660;2023-06-19T09:43:55;5.82;;;2.78;;
4909;SDS011;2470;49.868;8.660;2023-06-19T09:46:25;3.13;;;2.35;;
4909;SDS011;2470;49.868;8.660;2023-06-19T09:48:55;3.35;;;2.70;;
4909;SDS011;2470;49.868;8.660;2023-06-19T09:51:44;2.42;;;2.22;;
4909;SDS011;2470;49.868;8.660;2023-06-19T09:54:09;3.28;;;2.97;;
4909;SDS011;2470;49.868;8.660;2023-06-19T09:56:36;2.92;;;2.03;;
4909;SDS011;2470;49.868;8.660;2023-06-19T09:59:03;2.45;;;2.25;;
4909;SDS011;2470;49.868;8.660;2023-06-19T10:01:29;3.42;;;2.58;;
4909;SDS011;2470;49.868;8.660;2023-06-19T10:04:04;2.85;;;1.80;;
4909;SDS011;2470;49.868;8.660;2023-06-19T10:06:31;2.50;;;2.30;;
4909;SDS011;2470;49.868;8.660;2023-06-19T10:09:05;2.50;;;2.10;;
4909;SDS011;2470;49.868;8.660;2023-06-19T10:11:44;3.83;;;2.35;;
4909;SDS011;2470;49.868;8.660;2023-06-19T10:14:11;2.60;;;2.17;;
4909;SDS011;2470;49.868;8.660;2023-06-19T10:16:37;2.67;;;2.28;;
4909;SDS011;2470;49.868;8.660;2023-06-19T10:19:11;2.45;;;2.28;;
4909;SDS011;2470;49.868;8.660;2023-06-19T10:21:48;2.67;;;2.35;;
4909;SDS011;2470;49.868;8.660;2023-06-19T10:24:17;2.80;;;2.20;;
4909;SDS011;2470;49.868;8.660;2023-06-19T10:26:54;2.97;;;2.35;;
4909;SDS011;2470;49.868;8.660;2023-06-19T10:29:25;2.78;;;2.58;;
4909;SDS011;2470;49.868;8.660;2023-06-19T10:31:52;2.47;;;2.28;;
4909;SDS011;2470;49.868;8.660;2023-06-19T10:34:17;3.13;;;2.33;;
4909;SDS011;2470;49.868;8.660;2023-06-19T10:36:43;2.28;;;2.08;;
4909;SDS011;2470;49.868;8.660;2023-06-19T10:39:09;3.47;;;2.50;;
4909;SDS011;2470;49.868;8.660;2023-06-19T10:41:35;2.95;;;2.67;;
4909;SDS011;2470;49.868;8.660;2023-06-19T10:44:06;2.47;;;2.28;;
4909;SDS011;2470;49.868;8.660;2023-06-19T10:46:37;2.95;;;2.60;;
4909;SDS011;2470;49.868;8.660;2023-06-19T10:49:03;4.90;;;2.70;;
4909;SDS011;2470;49.868;8.660;2023-06-19T10:51:30;4.15;;;2.80;;
4909;SDS011;2470;49.868;8.660;2023-06-19T10:53:58;2.92;;;2.38;;
4909;SDS011;2470;49.868;8.660;2023-06-19T10:56:24;2.55;;;2.35;;
4909;SDS011;2470;49.868;8.660;2023-06-19T10:59:06;3.13;;;2.15;;
4909;SDS011;2470;49.868;8.660;2023-06-19T11:01:40;2.72;;;2.40;;
4909;SDS011;2470;49.868;8.660;2023-06-19T11:04:10;2.50;;;2.30;;
4909;SDS011;2470;49.868;8.660;2023-06-19T11:06:37;3.47;;;2.38;;
4909;SDS011;2470;49.868;8.660;2023-06-19T11:09:04;2.00;;;1.90;;
4909;SDS011;2470;49.868;8.660;2023-06-19T11:14:55;2.63;;;2.15;;
4909;SDS011;2470;49.868;8.660;2023-06-19T11:17:20;3.20;;;2.58;;
4909;SDS011;2470;49.868;8.660;2023-06-19T11:19:47;2.90;;;2.67;;
4909;SDS011;2470;49.868;8.660;2023-06-19T11:22:14;2.05;;;1.83;;
4909;SDS011;2470;49.868;8.660;2023-06-19T11:24:43;3.38;;;2.10;;
4909;SDS011;2470;49.868;8.660;2023-06-19T11:27:18;2.90;;;2.17;;
4909;SDS011;2470;49.868;8.660;2023-06-19T11:29:54;2.10;;;1.90;;
4909;SDS011;2470;49.868;8.660;2023-06-19T11:32:21;2.58;;;2.38;;
4909;SDS011;2470;49.868;8.660;2023-06-19T11:34:49;2.50;;;2.30;;
4909;SDS011;2470;49.868;8.660;2023-06-19T11:37:18;2.67;;;2.20;;
4909;SDS011;2470;49.868;8.660;2023-06-19T11:39:44;2.78;;;2.20;;
4909;SDS011;2470;49.868;8.660;2023-06-19T11:42:10;3.00;;;2.10;;
4909;SDS011;2470;49.868;8.660;2023-06-19T11:44:52;2.75;;;1.80;;
4909;SDS011;2470;49.868;8.660;2023-06-19T11:47:19;2.22;;;2.00;;
4909;SDS011;2470;49.868;8.660;2023-06-19T11:49:46;1.88;;;1.77;;
4909;SDS011;2470;49.868;8.660;2023-06-19T11:52:13;2.25;;;2.03;;
4909;SDS011;2470;49.868;8.660;2023-06-19T11:54:39;3.33;;;2.30;;
4909;SDS011;2470;49.868;8.660;2023-06-19T11:57:04;2.35;;;2.15;;
4909;SDS011;2470;49.868;8.660;2023-06-19T11:59:30;2.30;;;2.10;;
4909;SDS011;2470;49.868;8.660;2023-06-19T12:01:56;4.38;;;3.00;;
4909;SDS011;2470;49.868;8.660;2023-06-19T12:04:23;2.30;;;2.10;;
4909;SDS011;2470;49.868;8.660;2023-06-19T12:06:49;2.05;;;1.92;;
4909;SDS011;2470;49.868;8.660;2023-06-19T12:09:15;2.50;;;2.00;;
4909;SDS011;2470;49.868;8.660;2023-06-19T12:11:40;2.00;;;1.80;;
4909;SDS011;2470;49.868;8.660;2023-06-19T12:14:06;7.70;;;2.33;;
4909;SDS011;2470;49.868;8.660;2023-06-19T12:16:31;2.17;;;1.98;;
4909;SDS011;2470;49.868;8.660;2023-06-19T12:18:57;1.95;;;1.85;;
4909;SDS011;2470;49.868;8.660;2023-06-19T12:21:23;2.05;;;1.83;;
4909;SDS011;2470;49.868;8.660;2023-06-19T12:23:48;1.95;;;1.85;;
4909;SDS011;2470;49.868;8.660;2023-06-19T12:26:14;3.20;;;2.00;;
4909;SDS011;2470;49.868;8.660;2023-06-19T12:28:39;2.78;;;2.25;;
4909;SDS011;2470;49.868;8.660;2023-06-19T12:31:05;2.13;;;1.92;;
4909;SDS011;2470;49.868;8.660;2023-06-19T12:33:31;2.55;;;2.35;;
4909;SDS011;2470;49.868;8.660;2023-06-19T12:35:58;2.78;;;2.15;;
4909;SDS011;2470;49.868;8.660;2023-06-19T12:38:24;2.15;;;1.95;;
4909;SDS011;2470;49.868;8.660;2023-06-19T12:40:49;1.95;;;1.70;;
4909;SDS011;2470;49.868;8.660;2023-06-19T12:43:15;2.30;;;2.10;;
4909;SDS011;2470;49.868;8.660;2023-06-19T12:45:40;2.20;;;2.00;;
4909;SDS011;2470;49.868;8.660;2023-06-19T12:48:06;2.33;;;2.13;;
4909;SDS011;2470;49.868;8.660;2023-06-19T12:50:32;3.25;;;2.05;;
4909;SDS011;2470;49.868;8.660;2023-06-19T12:52:58;2.30;;;1.77;;
4909;SDS011;2470;49.868;8.660;2023-06-19T12:55:23;2.08;;;1.88;;
4909;SDS011;2470;49.868;8.660;2023-06-19T12:57:49;2.53;;;1.98;;
4909;SDS011;2470;49.868;8.660;2023-06-19T13:00:14;2.08;;;1.88;;
4909;SDS011;2470;49.868;8.660;2023-06-19T13:02:40;1.70;;;1.60;;
4909;SDS011;2470;49.868;8.660;2023-06-19T13:05:08;2.10;;;1.98;;
4909;SDS011;2470;49.868;8.660;2023-06-19T13:07:33;1.80;;;1.60;;
4909;SDS011;2470;49.868;8.660;2023-06-19T13:09:59;2.00;;;1.80;;
4909;SDS011;2470;49.868;8.660;2023-06-19T13:12:24;1.80;;;1.70;;
4909;SDS011;2470;49.868;8.660;2023-06-19T13:14:50;2.03;;;1.92;;
4909;SDS011;2470;49.868;8.660;2023-06-19T13:17:16;3.47;;;1.90;;
4909;SDS011;2470;49.868;8.660;2023-06-19T13:19:42;2.17;;;2.03;;
4909;SDS011;2470;49.868;8.660;2023-06-19T13:22:08;2.10;;;1.90;;
4909;SDS011;2470;49.868;8.660;2023-06-19T13:24:34;1.83;;;1.73;;
4909;SDS011;2470;49.868;8.660;2023-06-19T13:26:59;1.75;;;1.65;;
4909;SDS011;2470;49.868;8.660;2023-06-19T13:29:25;2.08;;;1.90;;
4909;SDS011;2470;49.868;8.660;2023-06-19T13:31:50;2.90;;;2.28;;
4909;SDS011;2470;49.868;8.660;2023-06-19T13:34:16;2.95;;;1.80;;
4909;SDS011;2470;49.868;8.660;2023-06-19T13:36:43;2.35;;;2.08;;
4909;SDS011;2470;49.868;8.660;2023-06-19T13:39:09;2.42;;;2.10;;
4909;SDS011;2470;49.868;8.660;2023-06-19T13:41:34;1.88;;;1.42;;
4909;SDS011;2470;49.868;8.660;2023-06-19T13:44:00;1.70;;;1.60;;
4909;SDS011;2470;49.868;8.660;2023-06-19T13:46:26;2.20;;;2.10;;
4909;SDS011;2470;49.868;8.660;2023-06-19T13:48:52;1.50;;;1.40;;
4909;SDS011;2470;49.868;8.660;2023-06-19T13:51:18;1.48;;;1.38;;
4909;SDS011;2470;49.868;8.660;2023-06-19T13:53:47;2.40;;;1.58;;
4909;SDS011;2470;49.868;8.660;2023-06-19T13:56:13;4.68;;;1.90;;
4909;SDS011;2470;49.868;8.660;2023-06-19T13:58:39;1.90;;;1.80;;
4909;SDS011;2470;49.868;8.660;2023-06-19T14:01:05;1.65;;;1.55;;
4909;SDS011;2470;49.868;8.660;2023-06-19T14:03:33;1.48;;;1.38;;
4909;SDS011;2470;49.868;8.660;2023-06-19T14:06:01;1.63;;;1.52;;
4909;SDS011;2470;49.868;8.660;2023-06-19T14:08:27;1.65;;;1.55;;
4909;SDS011;2470;49.868;8.660;2023-06-19T14:10:52;1.58;;;1.48;;
4909;SDS011;2470;49.868;8.660;2023-06-19T14:13:18;2.17;;;1.77;;
4909;SDS011;2470;49.868;8.660;2023-06-19T14:15:43;1.55;;;1.50;;
4909;SDS011;2470;49.868;8.660;2023-06-19T14:18:09;4.65;;;2.00;;
4909;SDS011;2470;49.868;8.660;2023-06-19T14:20:34;1.88;;;1.75;;
4909;SDS011;2470;49.868;8.660;2023-06-19T14:23:00;1.63;;;1.52;;
4909;SDS011;2470;49.868;8.660;2023-06-19T14:25:26;2.03;;;1.88;;
4909;SDS011;2470;49.868;8.660;2023-06-19T14:27:51;1.50;;;1.40;;
4909;SDS011;2470;49.868;8.660;2023-06-19T14:30:17;1.52;;;1.42;;
4909;SDS011;2470;49.868;8.660;2023-06-19T14:32:43;1.50;;;1.40;;
4909;SDS011;2470;49.868;8.660;2023-06-19T14:35:09;2.55;;;1.75;;
4909;SDS011;2470;49.868;8.660;2023-06-19T14:37:35;2.33;;;1.80;;
4909;SDS011;2470;49.868;8.660;2023-06-19T14:40:00;1.58;;;1.48;;
4909;SDS011;2470;49.868;8.660;2023-06-19T14:42:29;1.58;;;1.30;;
4909;SDS011;2470;49.868;8.660;2023-06-19T14:44:55;2.00;;;1.90;;
4909;SDS011;2470;49.868;8.660;2023-06-19T14:47:20;1.30;;;1.20;;
4909;SDS011;2470;49.868;8.660;2023-06-19T14:49:46;1.80;;;1.70;;
4909;SDS011;2470;49.868;8.660;2023-06-19T14:52:12;3.63;;;1.65;;
4909;SDS011;2470;49.868;8.660;2023-06-19T14:54:38;1.60;;;1.50;;
4909;SDS011;2470;49.868;8.660;2023-06-19T14:57:04;2.45;;;1.30;;
4909;SDS011;2470;49.868;8.660;2023-06-19T14:59:30;1.52;;;1.42;;
4909;SDS011;2470;49.868;8.660;2023-06-19T15:01:55;1.33;;;1.20;;
4909;SDS011;2470;49.868;8.660;2023-06-19T15:04:21;2.30;;;1.70;;
4909;SDS011;2470;49.868;8.660;2023-06-19T15:06:47;1.40;;;1.40;;
4909;SDS011;2470;49.868;8.660;2023-06-19T15:09:13;1.67;;;1.58;;
4909;SDS011;2470;49.868;8.660;2023-06-19T15:11:39;3.70;;;1.60;;
4909;SDS011;2470;49.868;8.660;2023-06-19T15:14:04;1.42;;;1.33;;
4909;SDS011;2470;49.868;8.660;2023-06-19T15:16:30;1.73;;;1.63;;
4909;SDS011;2470;49.868;8.660;2023-06-19T15:18:55;1.63;;;1.52;;